sensor_id;sensor_type;location;lat;lon;timestamp;temperature;humidity
80676;SHT30;70041;46.088;18.268;2023-07-24T00:02:23;21.03;85.35
80676;SHT30;70041;46.088;18.268;2023-07-24T00:04:50;21.04;85.16
80676;SHT30;70041;46.088;18.268;2023-07-24T00:07:15;21.02;85.48
80676;SHT30;70041;46.088;18.268;2023-07-24T00:09:40;21.02;85.17
80676;SHT30;70041;46.088;18.268;2023-07-24T00:12:06;21.04;85.14
80676;SHT30;70041;46.088;18.268;2023-07-24T00:14:32;21.04;85.00
80676;SHT30;70041;46.088;18.268;2023-07-24T00:16:57;20.99;85.10
80676;SHT30;70041;46.088;18.268;2023-07-24T00:19:23;20.99;85.57
80676;SHT30;70041;46.088;18.268;2023-07-24T00:21:48;20.95;85.54
80676;SHT30;70041;46.088;18.268;2023-07-24T00:24:14;20.92;85.25
80676;SHT30;70041;46.088;18.268;2023-07-24T00:26:39;20.92;85.42
80676;SHT30;70041;46.088;18.268;2023-07-24T00:29:05;20.86;85.60
80676;SHT30;70041;46.088;18.268;2023-07-24T00:31:30;20.78;85.77
80676;SHT30;70041;46.088;18.268;2023-07-24T00:33:55;20.78;85.92
80676;SHT30;70041;46.088;18.268;2023-07-24T00:36:24;20.71;86.07
80676;SHT30;70041;46.088;18.268;2023-07-24T00:38:49;20.69;85.83
80676;SHT30;70041;46.088;18.268;2023-07-24T00:41:14;20.73;85.83
80676;SHT30;70041;46.088;18.268;2023-07-24T00:43:40;20.85;85.44
80676;SHT30;70041;46.088;18.268;2023-07-24T00:46:06;20.88;85.41
80676;SHT30;70041;46.088;18.268;2023-07-24T00:48:31;20.85;85.29
80676;SHT30;70041;46.088;18.268;2023-07-24T00:50:57;20.79;85.55
80676;SHT30;70041;46.088;18.268;2023-07-24T00:53:22;20.76;85.69
80676;SHT30;70041;46.088;18.268;2023-07-24T00:55:48;20.69;86.13
80676;SHT30;70041;46.088;18.268;2023-07-24T00:58:16;20.71;85.81
80676;SHT30;70041;46.088;18.268;2023-07-24T01:00:42;20.69;85.96
80676;SHT30;70041;46.088;18.268;2023-07-24T01:03:08;20.68;86.30
80676;SHT30;70041;46.088;18.268;2023-07-24T01:05:33;20.71;85.83
80676;SHT30;70041;46.088;18.268;2023-07-24T01:07:59;20.66;86.42
80676;SHT30;70041;46.088;18.268;2023-07-24T01:10:24;20.69;86.18
80676;SHT30;70041;46.088;18.268;2023-07-24T01:12:59;20.69;86.40
80676;SHT30;70041;46.088;18.268;2023-07-24T01:15:41;20.66;86.42
80676;SHT30;70041;46.088;18.268;2023-07-24T01:18:11;20.72;86.14
80676;SHT30;70041;46.088;18.268;2023-07-24T01:20:43;20.78;86.25
80676;SHT30;70041;46.088;18.268;2023-07-24T01:23:34;20.65;86.56
80676;SHT30;70041;46.088;18.268;2023-07-24T01:26:01;20.59;87.01
80676;SHT30;70041;46.088;18.268;2023-07-24T01:28:29;20.56;87.06
80676;SHT30;70041;46.088;18.268;2023-07-24T01:30:55;20.52;87.07
80676;SHT30;70041;46.088;18.268;2023-07-24T01:33:21;20.61;87.14
80676;SHT30;70041;46.088;18.268;2023-07-24T01:35:54;20.61;86.56
80676;SHT30;70041;46.088;18.268;2023-07-24T01:38:21;20.65;86.14
80676;SHT30;70041;46.088;18.268;2023-07-24T01:40:50;20.66;86.22
80676;SHT30;70041;46.088;18.268;2023-07-24T01:43:17;20.66;85.63
80676;SHT30;70041;46.088;18.268;2023-07-24T01:45:42;20.65;86.20
80676;SHT30;70041;46.088;18.268;2023-07-24T01:48:11;20.62;86.09
80676;SHT30;70041;46.088;18.268;2023-07-24T01:50:36;20.59;86.06
80676;SHT30;70041;46.088;18.268;2023-07-24T01:53:02;20.58;86.68
80676;SHT30;70041;46.088;18.268;2023-07-24T01:55:27;20.66;86.13
80676;SHT30;70041;46.088;18.268;2023-07-24T01:57:53;20.66;86.11
80676;SHT30;70041;46.088;18.268;2023-07-24T02:00:18;20.61;86.14
80676;SHT30;70041;46.088;18.268;2023-07-24T02:02:44;20.55;86.81
80676;SHT30;70041;46.088;18.268;2023-07-24T02:05:09;20.53;87.08
80676;SHT30;70041;46.088;18.268;2023-07-24T02:07:35;20.53;85.54
80676;SHT30;70041;46.088;18.268;2023-07-24T02:10:00;20.55;85.77
80676;SHT30;70041;46.088;18.268;2023-07-24T02:12:25;20.53;85.14
80676;SHT30;70041;46.088;18.268;2023-07-24T02:14:51;20.51;85.18
80676;SHT30;70041;46.088;18.268;2023-07-24T02:17:19;20.44;85.70
80676;SHT30;70041;46.088;18.268;2023-07-24T02:19:45;20.39;85.72
80676;SHT30;70041;46.088;18.268;2023-07-24T02:22:10;20.35;86.21
80676;SHT30;70041;46.088;18.268;2023-07-24T02:24:36;20.31;86.59
80676;SHT30;70041;46.088;18.268;2023-07-24T02:27:01;20.27;86.89
80676;SHT30;70041;46.088;18.268;2023-07-24T02:29:27;20.29;86.05
80676;SHT30;70041;46.088;18.268;2023-07-24T02:31:54;20.18;86.85
80676;SHT30;70041;46.088;18.268;2023-07-24T02:34:19;20.13;87.37
80676;SHT30;70041;46.088;18.268;2023-07-24T02:36:50;20.14;86.83
80676;SHT30;70041;46.088;18.268;2023-07-24T02:39:16;20.20;86.54
80676;SHT30;70041;46.088;18.268;2023-07-24T02:41:41;20.24;86.22
80676;SHT30;70041;46.088;18.268;2023-07-24T02:44:07;20.24;85.36
80676;SHT30;70041;46.088;18.268;2023-07-24T02:46:32;20.21;85.83
80676;SHT30;70041;46.088;18.268;2023-07-24T02:48:58;20.14;86.10
80676;SHT30;70041;46.088;18.268;2023-07-24T02:51:23;20.11;86.35
80676;SHT30;70041;46.088;18.268;2023-07-24T02:53:49;20.11;86.11
80676;SHT30;70041;46.088;18.268;2023-07-24T02:56:14;20.04;85.70
80676;SHT30;70041;46.088;18.268;2023-07-24T02:58:40;19.94;86.28
80676;SHT30;70041;46.088;18.268;2023-07-24T03:01:06;19.87;86.90
80676;SHT30;70041;46.088;18.268;2023-07-24T03:03:33;19.81;87.06
80676;SHT30;70041;46.088;18.268;2023-07-24T03:05:58;19.80;87.79
80676;SHT30;70041;46.088;18.268;2023-07-24T03:08:24;19.80;88.06
80676;SHT30;70041;46.088;18.268;2023-07-24T03:10:49;19.83;87.36
80676;SHT30;70041;46.088;18.268;2023-07-24T03:13:15;19.87;86.44
80676;SHT30;70041;46.088;18.268;2023-07-24T03:15:40;19.87;86.40
80676;SHT30;70041;46.088;18.268;2023-07-24T03:18:05;19.81;86.63
80676;SHT30;70041;46.088;18.268;2023-07-24T03:20:41;19.81;86.89
80676;SHT30;70041;46.088;18.268;2023-07-24T03:23:06;19.84;87.02
80676;SHT30;70041;46.088;18.268;2023-07-24T03:25:32;19.77;87.60
80676;SHT30;70041;46.088;18.268;2023-07-24T03:28:00;19.80;87.48
80676;SHT30;70041;46.088;18.268;2023-07-24T03:30:26;19.81;87.59
80676;SHT30;70041;46.088;18.268;2023-07-24T03:32:51;19.80;87.69
80676;SHT30;70041;46.088;18.268;2023-07-24T03:35:17;19.76;88.17
80676;SHT30;70041;46.088;18.268;2023-07-24T03:37:42;19.71;88.55
80676;SHT30;70041;46.088;18.268;2023-07-24T03:40:08;19.71;88.93
80676;SHT30;70041;46.088;18.268;2023-07-24T03:42:33;19.80;88.73
80676;SHT30;70041;46.088;18.268;2023-07-24T03:44:59;19.83;88.96
80676;SHT30;70041;46.088;18.268;2023-07-24T03:47:25;19.86;88.95
80676;SHT30;70041;46.088;18.268;2023-07-24T03:49:50;19.93;89.05
80676;SHT30;70041;46.088;18.268;2023-07-24T03:52:16;19.96;89.39
80676;SHT30;70041;46.088;18.268;2023-07-24T03:54:41;19.98;89.27
80676;SHT30;70041;46.088;18.268;2023-07-24T03:57:07;19.94;89.24
80676;SHT30;70041;46.088;18.268;2023-07-24T03:59:32;19.96;89.23
80676;SHT30;70041;46.088;18.268;2023-07-24T04:01:58;20.03;89.17
80676;SHT30;70041;46.088;18.268;2023-07-24T04:04:24;20.04;87.62
80676;SHT30;70041;46.088;18.268;2023-07-24T04:06:49;20.06;87.01
80676;SHT30;70041;46.088;18.268;2023-07-24T04:09:15;20.04;87.60
80676;SHT30;70041;46.088;18.268;2023-07-24T04:11:41;20.00;88.50
80676;SHT30;70041;46.088;18.268;2023-07-24T04:14:06;20.06;88.77
80676;SHT30;70041;46.088;18.268;2023-07-24T04:16:32;20.15;88.52
80676;SHT30;70041;46.088;18.268;2023-07-24T04:18:57;20.14;88.41
80676;SHT30;70041;46.088;18.268;2023-07-24T04:21:23;20.17;88.62
80676;SHT30;70041;46.088;18.268;2023-07-24T04:23:48;20.20;88.46
80676;SHT30;70041;46.088;18.268;2023-07-24T04:26:14;20.25;88.13
80676;SHT30;70041;46.088;18.268;2023-07-24T04:28:39;20.31;87.72
80676;SHT30;70041;46.088;18.268;2023-07-24T04:31:05;20.27;87.23
80676;SHT30;70041;46.088;18.268;2023-07-24T04:33:30;20.24;86.83
80676;SHT30;70041;46.088;18.268;2023-07-24T04:35:56;20.22;87.15
80676;SHT30;70041;46.088;18.268;2023-07-24T04:38:22;20.21;87.45
80676;SHT30;70041;46.088;18.268;2023-07-24T04:40:47;20.18;87.84
80676;SHT30;70041;46.088;18.268;2023-07-24T04:43:13;20.18;88.68
80676;SHT30;70041;46.088;18.268;2023-07-24T04:45:38;20.28;88.27
80676;SHT30;70041;46.088;18.268;2023-07-24T04:48:04;20.38;88.14
80676;SHT30;70041;46.088;18.268;2023-07-24T04:50:30;20.41;88.09
80676;SHT30;70041;46.088;18.268;2023-07-24T04:52:55;20.51;88.09
80676;SHT30;70041;46.088;18.268;2023-07-24T04:55:21;20.58;87.94
80676;SHT30;70041;46.088;18.268;2023-07-24T04:57:47;20.62;87.77
80676;SHT30;70041;46.088;18.268;2023-07-24T05:00:13;20.68;87.46
80676;SHT30;70041;46.088;18.268;2023-07-24T05:02:38;20.69;87.56
80676;SHT30;70041;46.088;18.268;2023-07-24T05:05:04;20.73;87.40
80676;SHT30;70041;46.088;18.268;2023-07-24T05:07:30;20.76;87.33
80676;SHT30;70041;46.088;18.268;2023-07-24T05:09:55;20.82;87.18
80676;SHT30;70041;46.088;18.268;2023-07-24T05:12:21;20.82;87.87
80676;SHT30;70041;46.088;18.268;2023-07-24T05:14:55;20.89;87.76
80676;SHT30;70041;46.088;18.268;2023-07-24T05:17:21;20.99;87.50
80676;SHT30;70041;46.088;18.268;2023-07-24T05:19:46;21.10;86.99
80676;SHT30;70041;46.088;18.268;2023-07-24T05:22:11;21.16;86.67
80676;SHT30;70041;46.088;18.268;2023-07-24T05:24:37;21.22;86.35
80676;SHT30;70041;46.088;18.268;2023-07-24T05:27:06;21.26;86.71
80676;SHT30;70041;46.088;18.268;2023-07-24T05:29:32;21.41;86.62
80676;SHT30;70041;46.088;18.268;2023-07-24T05:31:57;21.49;85.89
80676;SHT30;70041;46.088;18.268;2023-07-24T05:34:24;21.54;85.47
80676;SHT30;70041;46.088;18.268;2023-07-24T05:36:49;21.54;86.06
80676;SHT30;70041;46.088;18.268;2023-07-24T05:39:15;21.55;85.27
80676;SHT30;70041;46.088;18.268;2023-07-24T05:41:40;21.58;85.63
80676;SHT30;70041;46.088;18.268;2023-07-24T05:44:06;21.61;85.75
80676;SHT30;70041;46.088;18.268;2023-07-24T05:46:31;21.65;85.99
80676;SHT30;70041;46.088;18.268;2023-07-24T05:48:56;21.98;83.80
80676;SHT30;70041;46.088;18.268;2023-07-24T05:51:22;22.11;83.16
80676;SHT30;70041;46.088;18.268;2023-07-24T05:53:48;22.13;83.26
80676;SHT30;70041;46.088;18.268;2023-07-24T05:56:13;22.19;82.92
80676;SHT30;70041;46.088;18.268;2023-07-24T05:58:39;22.32;82.82
80676;SHT30;70041;46.088;18.268;2023-07-24T06:01:04;22.33;83.16
80676;SHT30;70041;46.088;18.268;2023-07-24T06:03:29;22.38;83.14
80676;SHT30;70041;46.088;18.268;2023-07-24T06:05:55;22.46;83.58
80676;SHT30;70041;46.088;18.268;2023-07-24T06:08:22;22.51;83.46
80676;SHT30;70041;46.088;18.268;2023-07-24T06:10:48;22.79;80.69
80676;SHT30;70041;46.088;18.268;2023-07-24T06:13:17;22.86;80.80
80676;SHT30;70041;46.088;18.268;2023-07-24T06:15:43;22.97;80.41
80676;SHT30;70041;46.088;18.268;2023-07-24T06:18:09;23.14;79.57
80676;SHT30;70041;46.088;18.268;2023-07-24T06:20:35;23.20;79.16
80676;SHT30;70041;46.088;18.268;2023-07-24T06:23:00;23.35;78.28
80676;SHT30;70041;46.088;18.268;2023-07-24T06:25:28;23.48;78.39
80676;SHT30;70041;46.088;18.268;2023-07-24T06:27:54;23.54;78.57
80676;SHT30;70041;46.088;18.268;2023-07-24T06:30:19;23.71;77.02
80676;SHT30;70041;46.088;18.268;2023-07-24T06:32:45;23.85;76.96
80676;SHT30;70041;46.088;18.268;2023-07-24T06:35:10;24.04;75.22
80676;SHT30;70041;46.088;18.268;2023-07-24T06:37:35;24.13;75.54
80676;SHT30;70041;46.088;18.268;2023-07-24T06:40:01;24.27;75.45
80676;SHT30;70041;46.088;18.268;2023-07-24T06:42:26;24.36;74.50
80676;SHT30;70041;46.088;18.268;2023-07-24T06:44:52;24.39;73.91
80676;SHT30;70041;46.088;18.268;2023-07-24T06:47:17;24.46;72.71
80676;SHT30;70041;46.088;18.268;2023-07-24T06:49:43;24.52;74.07
80676;SHT30;70041;46.088;18.268;2023-07-24T06:52:09;24.64;72.74
80676;SHT30;70041;46.088;18.268;2023-07-24T06:54:34;24.83;70.27
80676;SHT30;70041;46.088;18.268;2023-07-24T06:57:00;25.04;70.22
80676;SHT30;70041;46.088;18.268;2023-07-24T06:59:25;25.07;70.35
80676;SHT30;70041;46.088;18.268;2023-07-24T07:01:50;25.07;70.71
80676;SHT30;70041;46.088;18.268;2023-07-24T07:04:16;25.06;70.22
80676;SHT30;70041;46.088;18.268;2023-07-24T07:06:41;25.14;69.61
80676;SHT30;70041;46.088;18.268;2023-07-24T07:09:07;25.21;69.52
80676;SHT30;70041;46.088;18.268;2023-07-24T07:11:32;25.24;68.64
80676;SHT30;70041;46.088;18.268;2023-07-24T07:13:58;25.22;68.35
80676;SHT30;70041;46.088;18.268;2023-07-24T07:16:23;25.29;67.84
80676;SHT30;70041;46.088;18.268;2023-07-24T07:18:52;25.41;67.74
80676;SHT30;70041;46.088;18.268;2023-07-24T07:21:17;25.50;67.20
80676;SHT30;70041;46.088;18.268;2023-07-24T07:23:42;25.58;67.54
80676;SHT30;70041;46.088;18.268;2023-07-24T07:26:08;25.55;67.77
80676;SHT30;70041;46.088;18.268;2023-07-24T07:28:33;25.66;68.18
80676;SHT30;70041;46.088;18.268;2023-07-24T07:30:59;25.86;65.17
80676;SHT30;70041;46.088;18.268;2023-07-24T07:33:24;25.92;64.90
80676;SHT30;70041;46.088;18.268;2023-07-24T07:35:50;26.03;63.44
80676;SHT30;70041;46.088;18.268;2023-07-24T07:38:15;26.06;62.70
80676;SHT30;70041;46.088;18.268;2023-07-24T07:40:41;26.09;61.52
80676;SHT30;70041;46.088;18.268;2023-07-24T07:43:06;26.13;63.91
80676;SHT30;70041;46.088;18.268;2023-07-24T07:45:32;26.23;60.77
80676;SHT30;70041;46.088;18.268;2023-07-24T07:47:57;26.27;62.55
80676;SHT30;70041;46.088;18.268;2023-07-24T07:50:23;26.34;62.11
80676;SHT30;70041;46.088;18.268;2023-07-24T07:52:52;26.43;62.54
80676;SHT30;70041;46.088;18.268;2023-07-24T07:55:20;26.47;62.62
80676;SHT30;70041;46.088;18.268;2023-07-24T07:57:46;26.45;62.03
80676;SHT30;70041;46.088;18.268;2023-07-24T08:00:12;26.47;62.93
80676;SHT30;70041;46.088;18.268;2023-07-24T08:02:37;26.58;62.95
80676;SHT30;70041;46.088;18.268;2023-07-24T08:05:07;26.65;60.86
80676;SHT30;70041;46.088;18.268;2023-07-24T08:07:33;26.74;60.38
80676;SHT30;70041;46.088;18.268;2023-07-24T08:09:58;26.82;58.97
80676;SHT30;70041;46.088;18.268;2023-07-24T08:12:24;26.82;58.26
80676;SHT30;70041;46.088;18.268;2023-07-24T08:14:50;26.82;59.70
80676;SHT30;70041;46.088;18.268;2023-07-24T08:17:15;26.99;59.54
80676;SHT30;70041;46.088;18.268;2023-07-24T08:19:40;27.06;58.69
80676;SHT30;70041;46.088;18.268;2023-07-24T08:22:06;27.09;58.05
80676;SHT30;70041;46.088;18.268;2023-07-24T08:24:34;27.01;57.44
80676;SHT30;70041;46.088;18.268;2023-07-24T08:27:00;27.09;57.84
80676;SHT30;70041;46.088;18.268;2023-07-24T08:29:26;27.08;57.78
80676;SHT30;70041;46.088;18.268;2023-07-24T08:31:51;27.12;56.91
80676;SHT30;70041;46.088;18.268;2023-07-24T08:34:17;27.05;55.86
80676;SHT30;70041;46.088;18.268;2023-07-24T08:36:43;27.15;56.94
80676;SHT30;70041;46.088;18.268;2023-07-24T08:39:08;27.18;55.84
80676;SHT30;70041;46.088;18.268;2023-07-24T08:41:34;27.19;54.63
80676;SHT30;70041;46.088;18.268;2023-07-24T08:44:02;27.25;55.24
80676;SHT30;70041;46.088;18.268;2023-07-24T08:46:28;27.29;55.31
80676;SHT30;70041;46.088;18.268;2023-07-24T08:48:55;27.38;55.29
80676;SHT30;70041;46.088;18.268;2023-07-24T08:51:22;27.38;56.29
80676;SHT30;70041;46.088;18.268;2023-07-24T08:53:48;27.43;57.13
80676;SHT30;70041;46.088;18.268;2023-07-24T08:56:14;27.47;56.79
80676;SHT30;70041;46.088;18.268;2023-07-24T08:58:40;27.46;56.25
80676;SHT30;70041;46.088;18.268;2023-07-24T09:01:06;27.59;56.25
80676;SHT30;70041;46.088;18.268;2023-07-24T09:03:33;27.62;57.29
80676;SHT30;70041;46.088;18.268;2023-07-24T09:05:58;27.76;56.84
80676;SHT30;70041;46.088;18.268;2023-07-24T09:11:02;27.90;56.38
80676;SHT30;70041;46.088;18.268;2023-07-24T09:13:28;27.98;55.21
80676;SHT30;70041;46.088;18.268;2023-07-24T09:15:55;27.93;55.14
80676;SHT30;70041;46.088;18.268;2023-07-24T09:18:21;28.08;54.32
80676;SHT30;70041;46.088;18.268;2023-07-24T09:20:47;28.14;55.54
80676;SHT30;70041;46.088;18.268;2023-07-24T09:23:13;28.17;56.11
80676;SHT30;70041;46.088;18.268;2023-07-24T09:25:40;28.28;54.26
80676;SHT30;70041;46.088;18.268;2023-07-24T09:28:17;28.52;55.19
80676;SHT30;70041;46.088;18.268;2023-07-24T09:30:57;28.62;53.08
80676;SHT30;70041;46.088;18.268;2023-07-24T09:33:40;28.66;52.70
80676;SHT30;70041;46.088;18.268;2023-07-24T09:36:07;28.78;55.33
80676;SHT30;70041;46.088;18.268;2023-07-24T09:38:34;28.85;54.93
80676;SHT30;70041;46.088;18.268;2023-07-24T09:41:02;28.88;54.13
80676;SHT30;70041;46.088;18.268;2023-07-24T09:43:29;28.96;52.35
80676;SHT30;70041;46.088;18.268;2023-07-24T09:45:56;28.98;53.18
80676;SHT30;70041;46.088;18.268;2023-07-24T09:48:24;29.07;51.83
80676;SHT30;70041;46.088;18.268;2023-07-24T09:50:55;29.07;52.17
80676;SHT30;70041;46.088;18.268;2023-07-24T09:53:28;29.12;51.72
80676;SHT30;70041;46.088;18.268;2023-07-24T09:56:02;29.27;51.89
80676;SHT30;70041;46.088;18.268;2023-07-24T09:58:29;29.36;51.82
80676;SHT30;70041;46.088;18.268;2023-07-24T10:00:55;29.54;52.16
80676;SHT30;70041;46.088;18.268;2023-07-24T10:03:22;29.51;51.65
80676;SHT30;70041;46.088;18.268;2023-07-24T10:05:48;29.47;51.34
80676;SHT30;70041;46.088;18.268;2023-07-24T10:08:24;29.63;51.60
80676;SHT30;70041;46.088;18.268;2023-07-24T10:10:50;29.78;51.90
80676;SHT30;70041;46.088;18.268;2023-07-24T10:13:19;29.84;51.29
80676;SHT30;70041;46.088;18.268;2023-07-24T10:15:46;30.01;50.30
80676;SHT30;70041;46.088;18.268;2023-07-24T10:18:12;30.04;49.51
80676;SHT30;70041;46.088;18.268;2023-07-24T10:20:40;30.00;50.21
80676;SHT30;70041;46.088;18.268;2023-07-24T10:23:07;29.92;50.48
80676;SHT30;70041;46.088;18.268;2023-07-24T10:25:34;30.05;50.17
80676;SHT30;70041;46.088;18.268;2023-07-24T10:28:04;30.18;49.38
80676;SHT30;70041;46.088;18.268;2023-07-24T10:30:33;30.28;48.60
80676;SHT30;70041;46.088;18.268;2023-07-24T10:33:13;30.43;47.76
80676;SHT30;70041;46.088;18.268;2023-07-24T10:38:09;30.55;47.00
80676;SHT30;70041;46.088;18.268;2023-07-24T10:40:35;30.70;46.34
80676;SHT30;70041;46.088;18.268;2023-07-24T10:43:04;30.78;46.30
80676;SHT30;70041;46.088;18.268;2023-07-24T10:45:48;31.40;45.35
80676;SHT30;70041;46.088;18.268;2023-07-24T10:48:16;32.21;43.00
80676;SHT30;70041;46.088;18.268;2023-07-24T10:50:44;33.00;42.76
80676;SHT30;70041;46.088;18.268;2023-07-24T10:53:11;33.75;40.57
80676;SHT30;70041;46.088;18.268;2023-07-24T10:55:37;33.78;39.17
80676;SHT30;70041;46.088;18.268;2023-07-24T10:58:03;33.86;38.30
80676;SHT30;70041;46.088;18.268;2023-07-24T11:00:28;33.92;38.20
80676;SHT30;70041;46.088;18.268;2023-07-24T11:02:54;33.86;36.09
80676;SHT30;70041;46.088;18.268;2023-07-24T11:05:23;33.51;37.09
80676;SHT30;70041;46.088;18.268;2023-07-24T11:07:49;33.64;37.53
80676;SHT30;70041;46.088;18.268;2023-07-24T11:10:18;33.37;37.51
80676;SHT30;70041;46.088;18.268;2023-07-24T11:12:44;33.04;38.81
80676;SHT30;70041;46.088;18.268;2023-07-24T11:15:11;32.63;39.69
80676;SHT30;70041;46.088;18.268;2023-07-24T11:17:38;32.06;39.98
80676;SHT30;70041;46.088;18.268;2023-07-24T11:20:13;32.09;38.81
80676;SHT30;70041;46.088;18.268;2023-07-24T11:22:40;31.93;41.08
80676;SHT30;70041;46.088;18.268;2023-07-24T11:25:06;31.74;41.11
80676;SHT30;70041;46.088;18.268;2023-07-24T11:27:32;31.86;42.30
80676;SHT30;70041;46.088;18.268;2023-07-24T11:29:58;31.99;42.26
80676;SHT30;70041;46.088;18.268;2023-07-24T11:32:26;31.92;41.01
80676;SHT30;70041;46.088;18.268;2023-07-24T11:34:52;31.89;41.85
80676;SHT30;70041;46.088;18.268;2023-07-24T11:37:18;31.95;42.28
80676;SHT30;70041;46.088;18.268;2023-07-24T11:39:58;31.98;41.68
80676;SHT30;70041;46.088;18.268;2023-07-24T11:42:27;32.09;41.72
80676;SHT30;70041;46.088;18.268;2023-07-24T11:44:52;32.15;42.06
80676;SHT30;70041;46.088;18.268;2023-07-24T11:47:18;32.42;42.56
80676;SHT30;70041;46.088;18.268;2023-07-24T11:49:43;32.37;40.93
80676;SHT30;70041;46.088;18.268;2023-07-24T11:52:13;32.51;39.97
80676;SHT30;70041;46.088;18.268;2023-07-24T11:54:39;32.77;40.83
80676;SHT30;70041;46.088;18.268;2023-07-24T11:57:25;32.91;39.58
80676;SHT30;70041;46.088;18.268;2023-07-24T11:59:50;32.86;40.98
80676;SHT30;70041;46.088;18.268;2023-07-24T12:02:15;33.18;40.04
80676;SHT30;70041;46.088;18.268;2023-07-24T12:04:41;33.15;39.14
80676;SHT30;70041;46.088;18.268;2023-07-24T12:07:10;32.90;39.55
80676;SHT30;70041;46.088;18.268;2023-07-24T12:09:38;32.74;39.41
80676;SHT30;70041;46.088;18.268;2023-07-24T12:12:04;32.77;39.68
80676;SHT30;70041;46.088;18.268;2023-07-24T12:14:30;32.67;39.52
80676;SHT30;70041;46.088;18.268;2023-07-24T12:17:03;32.80;40.18
80676;SHT30;70041;46.088;18.268;2023-07-24T12:19:31;33.15;40.81
80676;SHT30;70041;46.088;18.268;2023-07-24T12:21:56;33.68;39.33
80676;SHT30;70041;46.088;18.268;2023-07-24T12:24:22;33.94;38.40
80676;SHT30;70041;46.088;18.268;2023-07-24T12:26:47;34.19;37.74
80676;SHT30;70041;46.088;18.268;2023-07-24T12:29:13;34.45;38.35
80676;SHT30;70041;46.088;18.268;2023-07-24T12:31:38;34.50;37.61
80676;SHT30;70041;46.088;18.268;2023-07-24T12:34:04;35.45;36.23
80676;SHT30;70041;46.088;18.268;2023-07-24T12:36:29;35.35;35.82
80676;SHT30;70041;46.088;18.268;2023-07-24T12:38:54;34.71;36.79
80676;SHT30;70041;46.088;18.268;2023-07-24T12:41:20;34.46;37.82
80676;SHT30;70041;46.088;18.268;2023-07-24T12:43:45;34.42;37.63
80676;SHT30;70041;46.088;18.268;2023-07-24T12:46:11;35.31;37.28
80676;SHT30;70041;46.088;18.268;2023-07-24T12:48:36;36.53;34.72
80676;SHT30;70041;46.088;18.268;2023-07-24T12:51:03;36.90;33.77
80676;SHT30;70041;46.088;18.268;2023-07-24T12:53:28;37.75;32.34
80676;SHT30;70041;46.088;18.268;2023-07-24T12:55:53;38.19;32.12
80676;SHT30;70041;46.088;18.268;2023-07-24T12:58:19;38.59;30.84
80676;SHT30;70041;46.088;18.268;2023-07-24T13:00:44;36.97;31.48
80676;SHT30;70041;46.088;18.268;2023-07-24T13:03:10;36.36;33.17
80676;SHT30;70041;46.088;18.268;2023-07-24T13:05:35;36.60;33.15
80676;SHT30;70041;46.088;18.268;2023-07-24T13:08:02;36.98;30.62
80676;SHT30;70041;46.088;18.268;2023-07-24T13:10:27;37.61;30.65
80676;SHT30;70041;46.088;18.268;2023-07-24T13:12:53;37.96;29.98
80676;SHT30;70041;46.088;18.268;2023-07-24T13:15:18;37.89;30.13
80676;SHT30;70041;46.088;18.268;2023-07-24T13:17:44;37.89;30.64
80676;SHT30;70041;46.088;18.268;2023-07-24T13:20:09;38.66;30.13
80676;SHT30;70041;46.088;18.268;2023-07-24T13:22:35;38.57;30.46
80676;SHT30;70041;46.088;18.268;2023-07-24T13:25:00;38.90;29.12
80676;SHT30;70041;46.088;18.268;2023-07-24T13:27:26;38.60;29.96
80676;SHT30;70041;46.088;18.268;2023-07-24T13:29:51;38.66;29.78
80676;SHT30;70041;46.088;18.268;2023-07-24T13:32:17;38.71;29.78
80676;SHT30;70041;46.088;18.268;2023-07-24T13:34:42;39.10;29.32
80676;SHT30;70041;46.088;18.268;2023-07-24T13:37:10;39.79;28.50
80676;SHT30;70041;46.088;18.268;2023-07-24T13:39:35;40.53;28.25
80676;SHT30;70041;46.088;18.268;2023-07-24T13:42:01;40.71;27.89
80676;SHT30;70041;46.088;18.268;2023-07-24T13:44:26;38.80;30.54
80676;SHT30;70041;46.088;18.268;2023-07-24T13:46:52;37.11;34.55
80676;SHT30;70041;46.088;18.268;2023-07-24T13:49:18;36.12;33.50
80676;SHT30;70041;46.088;18.268;2023-07-24T13:51:44;36.86;33.52
80676;SHT30;70041;46.088;18.268;2023-07-24T13:54:10;37.29;32.14
80676;SHT30;70041;46.088;18.268;2023-07-24T13:56:35;36.98;33.24
80676;SHT30;70041;46.088;18.268;2023-07-24T13:59:01;36.94;33.84
80676;SHT30;70041;46.088;18.268;2023-07-24T14:01:26;37.28;32.55
80676;SHT30;70041;46.088;18.268;2023-07-24T14:03:52;38.47;30.31
80676;SHT30;70041;46.088;18.268;2023-07-24T14:06:17;39.22;30.67
80676;SHT30;70041;46.088;18.268;2023-07-24T14:08:43;38.81;30.61
80676;SHT30;70041;46.088;18.268;2023-07-24T14:11:09;38.20;31.63
80676;SHT30;70041;46.088;18.268;2023-07-24T14:13:34;38.44;29.98
80676;SHT30;70041;46.088;18.268;2023-07-24T14:16:00;38.03;30.59
80676;SHT30;70041;46.088;18.268;2023-07-24T14:18:25;38.12;29.06
80676;SHT30;70041;46.088;18.268;2023-07-24T14:20:50;37.94;29.60
80676;SHT30;70041;46.088;18.268;2023-07-24T14:23:19;37.55;31.13
80676;SHT30;70041;46.088;18.268;2023-07-24T14:25:45;36.60;32.34
80676;SHT30;70041;46.088;18.268;2023-07-24T14:28:10;35.88;34.29
80676;SHT30;70041;46.088;18.268;2023-07-24T14:30:35;36.40;33.92
80676;SHT30;70041;46.088;18.268;2023-07-24T14:33:01;36.13;35.09
80676;SHT30;70041;46.088;18.268;2023-07-24T14:35:26;35.75;34.68
80676;SHT30;70041;46.088;18.268;2023-07-24T14:37:52;37.70;31.21
80676;SHT30;70041;46.088;18.268;2023-07-24T14:40:18;38.70;30.67
80676;SHT30;70041;46.088;18.268;2023-07-24T14:42:44;38.26;30.21
80676;SHT30;70041;46.088;18.268;2023-07-24T14:45:10;37.52;30.97
80676;SHT30;70041;46.088;18.268;2023-07-24T14:47:35;36.26;32.89
80676;SHT30;70041;46.088;18.268;2023-07-24T14:50:01;35.66;33.73
80676;SHT30;70041;46.088;18.268;2023-07-24T14:52:26;36.29;33.27
80676;SHT30;70041;46.088;18.268;2023-07-24T14:54:52;35.84;33.10
80676;SHT30;70041;46.088;18.268;2023-07-24T14:57:17;35.39;33.96
80676;SHT30;70041;46.088;18.268;2023-07-24T14:59:43;34.83;34.74
80676;SHT30;70041;46.088;18.268;2023-07-24T15:02:13;34.55;33.59
80676;SHT30;70041;46.088;18.268;2023-07-24T15:04:38;34.25;34.52
80676;SHT30;70041;46.088;18.268;2023-07-24T15:07:04;33.84;35.63
80676;SHT30;70041;46.088;18.268;2023-07-24T15:09:29;33.54;36.67
80676;SHT30;70041;46.088;18.268;2023-07-24T15:11:56;33.51;36.18
80676;SHT30;70041;46.088;18.268;2023-07-24T15:14:22;33.35;36.90
80676;SHT30;70041;46.088;18.268;2023-07-24T15:16:47;33.24;37.81